createdAt,value
2019-03-29T00:01:38.996Z,102627.00
2019-03-29T00:04:10.418Z,102629.00
2019-03-29T00:06:41.639Z,102626.00
2019-03-29T00:09:12.747Z,102618.00
2019-03-29T00:11:44.187Z,102617.00
2019-03-29T00:14:15.947Z,102624.00
2019-03-29T00:16:47.877Z,102614.00
2019-03-29T00:19:19.305Z,102613.00
2019-03-29T00:21:50.598Z,102613.00
2019-03-29T00:24:21.613Z,102612.00
2019-03-29T00:26:53.203Z,102606.00
2019-03-29T00:29:24.430Z,102597.00
2019-03-29T00:31:56.101Z,102602.00
2019-03-29T00:34:27.583Z,102591.00
2019-03-29T00:36:58.672Z,102607.00
2019-03-29T00:39:30.160Z,102595.00
2019-03-29T00:42:01.563Z,102586.00
2019-03-29T00:44:39.577Z,102590.00
2019-03-29T00:47:10.775Z,102593.00
2019-03-29T00:49:41.781Z,102593.00
2019-03-29T00:52:12.738Z,102589.00
2019-03-29T00:54:43.871Z,102592.00
2019-03-29T00:57:15.283Z,102590.00
2019-03-29T00:59:46.739Z,102583.00
2019-03-29T01:02:18.937Z,102588.00
2019-03-29T01:04:50.147Z,102576.00
2019-03-29T01:07:21.694Z,102583.00
2019-03-29T01:09:52.778Z,102574.00
2019-03-29T01:12:24.047Z,102583.00
2019-03-29T01:14:55.188Z,102576.00
2019-03-29T01:17:26.333Z,102576.00
2019-03-29T01:19:57.438Z,102580.00
2019-03-29T01:22:28.757Z,102568.00
2019-03-29T01:25:00.429Z,102568.00
2019-03-29T01:27:31.639Z,102566.00
2019-03-29T01:30:03.033Z,102563.00
2019-03-29T01:32:34.398Z,102546.00
2019-03-29T01:35:06.187Z,102555.00
2019-03-29T01:37:37.339Z,102546.00
2019-03-29T01:40:09.382Z,102535.00
2019-03-29T01:42:40.408Z,102544.00
2019-03-29T01:45:11.952Z,102546.00
2019-03-29T01:47:43.131Z,102539.00
2019-03-29T01:50:14.397Z,102529.00
2019-03-29T01:52:46.001Z,102528.00
2019-03-29T01:55:17.397Z,102525.00
2019-03-29T01:57:48.618Z,102524.00
2019-03-29T02:00:33.618Z,102521.00
2019-03-29T02:03:04.775Z,102530.00
2019-03-29T02:05:35.916Z,102522.00
2019-03-29T02:08:14.988Z,102530.00
2019-03-29T02:10:46.182Z,102528.00
2019-03-29T02:13:17.676Z,102527.00
2019-03-29T02:15:49.096Z,102518.00
2019-03-29T02:18:20.187Z,102520.00
2019-03-29T02:20:51.555Z,102517.00
2019-03-29T02:23:22.970Z,102509.00
2019-03-29T02:25:54.643Z,102520.00
2019-03-29T02:28:25.654Z,102509.00
2019-03-29T02:30:56.875Z,102512.00
2019-03-29T02:33:28.272Z,102518.00
2019-03-29T02:35:59.609Z,102506.00
2019-03-29T02:38:30.761Z,102509.00
2019-03-29T02:41:01.915Z,102519.00
2019-03-29T02:43:32.941Z,102511.00
2019-03-29T02:46:04.613Z,102512.00
2019-03-29T02:48:36.278Z,102509.00
2019-03-29T02:51:07.428Z,102503.00
2019-03-29T02:53:38.791Z,102507.00
2019-03-29T02:56:09.972Z,102507.00
2019-03-29T02:58:41.306Z,102508.00
2019-03-29T03:01:12.403Z,102512.00
2019-03-29T03:03:43.744Z,102508.00
2019-03-29T03:06:15.104Z,102517.00
2019-03-29T03:08:46.175Z,102510.00
2019-03-29T03:11:17.173Z,102505.00
2019-03-29T03:13:48.590Z,102502.00
2019-03-29T03:16:19.710Z,102501.00
2019-03-29T03:18:50.737Z,102506.00
2019-03-29T03:21:21.846Z,102508.00
2019-03-29T03:23:52.878Z,102500.00
2019-03-29T03:26:24.015Z,102503.00
2019-03-29T03:28:55.270Z,102492.00
2019-03-29T03:31:26.654Z,102503.00
2019-03-29T03:33:57.861Z,102510.00
2019-03-29T03:36:29.357Z,102509.00
2019-03-29T03:39:00.574Z,102502.00
2019-03-29T03:41:31.702Z,102505.00
2019-03-29T03:44:02.766Z,102502.00
2019-03-29T03:46:33.906Z,102501.00
2019-03-29T03:49:05.104Z,102506.00
2019-03-29T03:51:36.725Z,102506.00
2019-03-29T03:54:07.963Z,102509.00
2019-03-29T03:56:39.725Z,102511.00
2019-03-29T03:59:10.999Z,102501.00
2019-03-29T04:01:42.067Z,102508.00
2019-03-29T04:04:13.586Z,102501.00
2019-03-29T04:06:44.692Z,102496.00
2019-03-29T04:09:15.824Z,102482.00
2019-03-29T04:11:47.239Z,102480.00
2019-03-29T04:14:18.716Z,102482.00
2019-03-29T04:16:49.710Z,102487.00
2019-03-29T04:19:20.806Z,102487.00
2019-03-29T04:21:51.939Z,102488.00
2019-03-29T04:24:23.123Z,102482.00
2019-03-29T04:26:54.594Z,102473.00
2019-03-29T04:29:25.744Z,102486.00
2019-03-29T04:31:56.921Z,102475.00
2019-03-29T04:34:27.966Z,102479.00
2019-03-29T04:36:59.087Z,102483.00
2019-03-29T04:39:30.606Z,102480.00
2019-03-29T04:42:02.265Z,102481.00
2019-03-29T04:44:33.260Z,102471.00
2019-03-29T04:47:04.602Z,102481.00
2019-03-29T04:49:36.299Z,102482.00
2019-03-29T04:52:08.146Z,102470.00
2019-03-29T04:54:39.248Z,102470.00
2019-03-29T04:57:10.791Z,102470.00
2019-03-29T04:59:41.937Z,102470.00
2019-03-29T05:02:12.928Z,102469.00
2019-03-29T05:04:43.960Z,102478.00
2019-03-29T05:07:15.051Z,102480.00
2019-03-29T05:09:46.166Z,102473.00
2019-03-29T05:12:17.466Z,102472.00
2019-03-29T05:14:48.819Z,102462.00
2019-03-29T05:17:22.109Z,102469.00
2019-03-29T05:19:53.798Z,102470.00
2019-03-29T05:22:25.197Z,102468.00
2019-03-29T05:24:56.385Z,102475.00
2019-03-29T05:27:27.498Z,102478.00
2019-03-29T05:29:58.727Z,102477.00
2019-03-29T05:32:29.833Z,102478.00
2019-03-29T05:35:00.967Z,102483.00
2019-03-29T05:37:32.718Z,102483.00
2019-03-29T05:40:04.163Z,102468.00
2019-03-29T05:42:35.282Z,102472.00
2019-03-29T05:45:07.175Z,102477.00
2019-03-29T05:47:38.830Z,102473.00
2019-03-29T05:50:10.152Z,102474.00
2019-03-29T05:52:41.846Z,102477.00
2019-03-29T05:55:13.261Z,102481.00
2019-03-29T05:57:44.572Z,102473.00
2019-03-29T06:00:18.288Z,102484.00
2019-03-29T06:02:50.201Z,102480.00
2019-03-29T06:05:21.502Z,102478.00
2019-03-29T06:07:52.986Z,102474.00
2019-03-29T06:10:24.333Z,102468.00
2019-03-29T06:12:55.463Z,102464.00
2019-03-29T06:15:26.725Z,102463.00
2019-03-29T06:17:57.781Z,102463.00
2019-03-29T06:20:29.136Z,102472.00
2019-03-29T06:23:00.166Z,102468.00
2019-03-29T06:25:31.253Z,102467.00
2019-03-29T06:28:02.923Z,102471.00
2019-03-29T06:30:34.983Z,102468.00
2019-03-29T06:33:06.049Z,102472.00
2019-03-29T06:35:42.565Z,102470.00
2019-03-29T06:38:14.426Z,102462.00
2019-03-29T06:40:45.671Z,102463.00
2019-03-29T06:43:16.719Z,102456.00
2019-03-29T06:45:48.555Z,102455.00
2019-03-29T06:48:21.888Z,102454.00
2019-03-29T06:50:53.339Z,102449.00
2019-03-29T06:53:24.713Z,102461.00
2019-03-29T06:55:59.214Z,102457.00
2019-03-29T06:58:29.128Z,102455.00
2019-03-29T07:01:00.880Z,102463.00
2019-03-29T07:03:32.097Z,102454.00
2019-03-29T07:06:03.258Z,102449.00
2019-03-29T07:08:34.514Z,102454.00
2019-03-29T07:11:16.543Z,102456.00
2019-03-29T07:13:38.620Z,102447.00
2019-03-29T07:16:10.366Z,102438.00
2019-03-29T07:18:41.504Z,102456.00
2019-03-29T07:21:21.367Z,102448.00
2019-03-29T07:23:47.298Z,102445.00
2019-03-29T07:26:18.782Z,102451.00
2019-03-29T07:28:49.963Z,102454.00
2019-03-29T07:31:23.329Z,102442.00
2019-03-29T07:33:54.336Z,102447.00
2019-03-29T07:36:25.636Z,102450.00
2019-03-29T07:38:57.115Z,102447.00
2019-03-29T07:41:32.015Z,102443.00
2019-03-29T07:44:02.480Z,102442.00
2019-03-29T07:46:34.288Z,102435.00
2019-03-29T07:49:05.474Z,102441.00
2019-03-29T07:51:37.055Z,102445.00
2019-03-29T07:54:08.624Z,102442.00
2019-03-29T07:56:39.975Z,102431.00
2019-03-29T07:59:13.393Z,102442.00
2019-03-29T08:01:52.610Z,102440.00
2019-03-29T08:04:24.211Z,102435.00
2019-03-29T08:06:55.752Z,102441.00
2019-03-29T08:09:27.611Z,102437.00
2019-03-29T08:11:58.842Z,102440.00
2019-03-29T08:14:29.869Z,102450.00
2019-03-29T08:17:01.043Z,102437.00
2019-03-29T08:19:32.760Z,102434.00
2019-03-29T08:22:04.213Z,102434.00
2019-03-29T08:24:46.422Z,102426.00
2019-03-29T08:27:17.681Z,102422.00
2019-03-29T08:29:49.292Z,102424.00
2019-03-29T08:32:22.910Z,102413.00
2019-03-29T08:34:54.319Z,102431.00
2019-03-29T08:37:25.476Z,102433.00
2019-03-29T08:39:56.774Z,102426.00
2019-03-29T08:42:27.889Z,102433.00
2019-03-29T08:44:59.458Z,102429.00
2019-03-29T08:47:30.536Z,102430.00
2019-03-29T08:50:01.498Z,102429.00
2019-03-29T08:52:35.626Z,102428.00
2019-03-29T08:55:07.326Z,102414.00
2019-03-29T08:57:38.386Z,102425.00
2019-03-29T09:00:09.900Z,102425.00
2019-03-29T09:02:43.774Z,102421.00
2019-03-29T09:05:15.035Z,102419.00
2019-03-29T09:07:46.863Z,102421.00
2019-03-29T09:10:26.348Z,102406.00
2019-03-29T09:12:57.474Z,102418.00
2019-03-29T09:15:32.030Z,102418.00
2019-03-29T09:18:03.541Z,102412.00
2019-03-29T09:20:34.950Z,102409.00
2019-03-29T09:23:06.106Z,102406.00
2019-03-29T09:25:40.475Z,102407.00
2019-03-29T09:28:10.956Z,102401.00
2019-03-29T09:30:42.136Z,102399.00
2019-03-29T09:33:13.578Z,102394.00
2019-03-29T09:35:45.048Z,102401.00
2019-03-29T09:38:16.222Z,102398.00
2019-03-29T09:40:57.704Z,102393.00
2019-03-29T09:43:20.996Z,102391.00
2019-03-29T09:45:52.177Z,102384.00
2019-03-29T09:48:23.358Z,102386.00
2019-03-29T09:50:54.538Z,102384.00
2019-03-29T09:53:25.696Z,102386.00
2019-03-29T09:56:08.948Z,102367.00
2019-03-29T09:58:40.104Z,102374.00
2019-03-29T10:01:11.322Z,102375.00
2019-03-29T10:03:42.470Z,102358.00
2019-03-29T10:06:15.472Z,102367.00
2019-03-29T10:08:46.827Z,102358.00
2019-03-29T10:11:22.220Z,102351.00
2019-03-29T10:13:53.920Z,102361.00
2019-03-29T10:16:26.041Z,102365.00
2019-03-29T10:18:58.389Z,102353.00
2019-03-29T10:21:29.797Z,102339.00
2019-03-29T10:24:01.166Z,102337.00
2019-03-29T10:26:32.367Z,102326.00
2019-03-29T10:29:04.475Z,102333.00
2019-03-29T10:31:35.961Z,102323.00
2019-03-29T10:34:07.653Z,102322.00
2019-03-29T10:36:39.170Z,102323.00
2019-03-29T10:39:14.140Z,102325.00
2019-03-29T10:41:45.689Z,102320.00
2019-03-29T10:44:17.243Z,102315.00
2019-03-29T10:46:48.513Z,102315.00
2019-03-29T10:49:19.692Z,102308.00
2019-03-29T10:51:50.852Z,102303.00
2019-03-29T10:54:22.132Z,102310.00
2019-03-29T10:56:53.861Z,102298.00
2019-03-29T10:59:27.787Z,102302.00
2019-03-29T11:02:04.059Z,102292.00
2019-03-29T11:04:35.815Z,102287.00
2019-03-29T11:07:07.008Z,102286.00
2019-03-29T11:09:38.493Z,102278.00
2019-03-29T11:12:10.118Z,102283.00
2019-03-29T11:14:43.621Z,102276.00
2019-03-29T11:17:14.852Z,102276.00
2019-03-29T11:19:46.040Z,102262.00
2019-03-29T11:22:17.216Z,102269.00
2019-03-29T11:24:48.392Z,102264.00
2019-03-29T11:27:22.484Z,102268.00
2019-03-29T11:29:53.314Z,102264.00
2019-03-29T11:32:24.517Z,102250.00
2019-03-29T11:34:55.967Z,102255.00
2019-03-29T11:37:27.112Z,102242.00
2019-03-29T11:40:00.410Z,102240.00
2019-03-29T11:42:32.190Z,102241.00
2019-03-29T11:45:06.510Z,102238.00
2019-03-29T11:47:37.708Z,102241.00
2019-03-29T11:50:09.059Z,102235.00
2019-03-29T11:52:42.239Z,102234.00
2019-03-29T11:55:13.505Z,102229.00
2019-03-29T11:57:44.737Z,102219.00
2019-03-29T12:00:35.023Z,102222.00
2019-03-29T12:03:09.128Z,102216.00
2019-03-29T12:05:41.801Z,102214.00
2019-03-29T12:08:13.024Z,102208.00
2019-03-29T12:10:44.268Z,102218.00
2019-03-29T12:13:15.490Z,102209.00
2019-03-29T12:15:46.782Z,102210.00
2019-03-29T12:18:18.235Z,102204.00
2019-03-29T12:20:49.400Z,102194.00
2019-03-29T12:23:20.930Z,102191.00
2019-03-29T12:25:59.473Z,102186.00
2019-03-29T12:28:30.978Z,102184.00
2019-03-29T12:31:02.249Z,102186.00
2019-03-29T12:33:33.443Z,102178.00
2019-03-29T12:36:04.615Z,102186.00
2019-03-29T12:38:41.471Z,102170.00
2019-03-29T12:41:12.762Z,102170.00
2019-03-29T12:43:55.312Z,102166.00
2019-03-29T12:46:17.966Z,102169.00
2019-03-29T12:48:50.407Z,102156.00
2019-03-29T12:51:22.053Z,102150.00
2019-03-29T12:53:53.211Z,102152.00
2019-03-29T12:56:24.653Z,102155.00
2019-03-29T12:58:55.812Z,102146.00
2019-03-29T13:01:38.359Z,102142.00
2019-03-29T13:04:00.999Z,102147.00
2019-03-29T13:06:32.598Z,102133.00
2019-03-29T13:09:04.678Z,102142.00
2019-03-29T13:11:36.382Z,102139.00
2019-03-29T13:14:13.808Z,102122.00
2019-03-29T13:16:45.015Z,102126.00
2019-03-29T13:19:22.561Z,102120.00
2019-03-29T13:21:54.021Z,102121.00
2019-03-29T13:24:25.399Z,102125.00
2019-03-29T13:26:57.099Z,102118.00
2019-03-29T13:29:28.250Z,102116.00
2019-03-29T13:31:59.445Z,102100.00
2019-03-29T13:34:30.708Z,102098.00
2019-03-29T13:37:01.988Z,102103.00
2019-03-29T13:39:42.940Z,102105.00
2019-03-29T13:42:14.483Z,102095.00
2019-03-29T13:44:46.380Z,102086.00
2019-03-29T13:47:18.197Z,102082.00
2019-03-29T13:49:49.918Z,102086.00
2019-03-29T13:52:21.457Z,102086.00
2019-03-29T13:54:52.639Z,102077.00
2019-03-29T13:57:24.135Z,102077.00
2019-03-29T13:59:56.189Z,102059.00
2019-03-29T14:02:42.566Z,102056.00
2019-03-29T14:05:14.629Z,102058.00
2019-03-29T14:07:47.228Z,102050.00
2019-03-29T14:10:18.986Z,102052.00
2019-03-29T14:12:50.436Z,102043.00
2019-03-29T14:15:21.937Z,102047.00
2019-03-29T14:17:53.478Z,102041.00
2019-03-29T14:20:34.223Z,102038.00
2019-03-29T14:23:06.573Z,102032.00
2019-03-29T14:25:37.775Z,102028.00
2019-03-29T14:28:11.060Z,102021.00
2019-03-29T14:30:42.500Z,102025.00
2019-03-29T14:33:13.940Z,102028.00
2019-03-29T14:35:45.286Z,102014.00
2019-03-29T14:38:16.446Z,102018.00
2019-03-29T14:40:56.751Z,102014.00
2019-03-29T14:43:27.892Z,102009.00
2019-03-29T14:45:59.202Z,102004.00
2019-03-29T14:48:35.711Z,102010.00
2019-03-29T14:51:06.918Z,102010.00
2019-03-29T14:53:38.356Z,102005.00
2019-03-29T14:56:09.851Z,101998.00
2019-03-29T14:58:44.435Z,101992.00
2019-03-29T15:01:15.599Z,102003.00
2019-03-29T15:03:46.743Z,102002.00
2019-03-29T15:06:18.216Z,101997.00
2019-03-29T15:08:50.952Z,101989.00
2019-03-29T15:11:22.924Z,101984.00
2019-03-29T15:13:55.245Z,101983.00
2019-03-29T15:16:26.695Z,101975.00
2019-03-29T15:19:00.968Z,101966.00
2019-03-29T15:21:32.695Z,101966.00
2019-03-29T15:24:05.206Z,101954.00
2019-03-29T15:26:36.662Z,101957.00
2019-03-29T15:29:07.871Z,101948.00
2019-03-29T15:31:39.345Z,101953.00
2019-03-29T15:34:10.733Z,101949.00
2019-03-29T15:36:41.875Z,101944.00
2019-03-29T15:39:14.421Z,101941.00
2019-03-29T15:41:45.605Z,101940.00
2019-03-29T15:44:16.799Z,101931.00
2019-03-29T15:46:48.047Z,101927.00
2019-03-29T15:49:19.873Z,101929.00
2019-03-29T15:51:51.041Z,101930.00
2019-03-29T15:54:22.362Z,101931.00
2019-03-29T15:56:53.586Z,101921.00
2019-03-29T15:59:24.773Z,101911.00
2019-03-29T16:01:56.196Z,101918.00
2019-03-29T16:04:28.139Z,101918.00
2019-03-29T16:06:59.612Z,101921.00
2019-03-29T16:09:31.064Z,101913.00
2019-03-29T16:12:02.593Z,101914.00
2019-03-29T16:14:33.829Z,101911.00
2019-03-29T16:17:05.509Z,101910.00
2019-03-29T16:19:36.990Z,101909.00
2019-03-29T16:22:15.974Z,101910.00
2019-03-29T16:24:47.424Z,101895.00
2019-03-29T16:27:20.893Z,101897.00
2019-03-29T16:29:52.072Z,101890.00
2019-03-29T16:32:23.889Z,101887.00
2019-03-29T16:34:55.065Z,101886.00
2019-03-29T16:37:26.589Z,101888.00
2019-03-29T16:39:57.784Z,101880.00
2019-03-29T16:42:29.230Z,101878.00
2019-03-29T16:45:00.965Z,101883.00
2019-03-29T16:47:32.152Z,101880.00
2019-03-29T16:50:03.332Z,101876.00
2019-03-29T16:52:34.568Z,101873.00
2019-03-29T16:55:13.153Z,101870.00
2019-03-29T16:57:39.107Z,101876.00
2019-03-29T17:00:12.846Z,101872.00
2019-03-29T17:02:44.239Z,101879.00
2019-03-29T17:05:15.628Z,101874.00
2019-03-29T17:07:46.902Z,101878.00
2019-03-29T17:10:18.137Z,101877.00
2019-03-29T17:12:52.274Z,101875.00
2019-03-29T17:15:23.151Z,101875.00
2019-03-29T17:17:54.600Z,101869.00
2019-03-29T17:20:26.045Z,101873.00
2019-03-29T17:22:57.471Z,101862.00
2019-03-29T17:25:29.335Z,101864.00
2019-03-29T17:28:00.769Z,101860.00
2019-03-29T17:30:44.173Z,101858.00
2019-03-29T17:33:15.597Z,101865.00
2019-03-29T17:35:47.403Z,101861.00
2019-03-29T17:38:18.651Z,101861.00
2019-03-29T17:40:50.097Z,101862.00
2019-03-29T17:43:21.265Z,101853.00
2019-03-29T17:45:52.514Z,101852.00
2019-03-29T17:48:23.698Z,101855.00
2019-03-29T17:50:55.185Z,101859.00
2019-03-29T17:53:26.660Z,101858.00
2019-03-29T17:55:57.885Z,101862.00
2019-03-29T17:58:29.127Z,101859.00
2019-03-29T18:01:00.557Z,101851.00
2019-03-29T18:03:50.150Z,101849.00
2019-03-29T18:06:21.671Z,101857.00
2019-03-29T18:08:53.090Z,101857.00
2019-03-29T18:11:24.370Z,101860.00
2019-03-29T18:13:55.635Z,101863.00
2019-03-29T18:16:30.976Z,101863.00
2019-03-29T18:19:00.075Z,101865.00
2019-03-29T18:21:31.775Z,101873.00
2019-03-29T18:24:03.303Z,101870.00
2019-03-29T18:26:34.496Z,101870.00
2019-03-29T18:29:11.952Z,101870.00
2019-03-29T18:31:43.346Z,101876.00
2019-03-29T18:34:14.587Z,101871.00
2019-03-29T18:36:47.132Z,101863.00
2019-03-29T18:39:18.378Z,101872.00
2019-03-29T18:41:49.605Z,101863.00
2019-03-29T18:44:20.823Z,101872.00
2019-03-29T18:46:53.376Z,101870.00
2019-03-29T18:49:24.608Z,101869.00
2019-03-29T18:51:55.774Z,101873.00
2019-03-29T18:54:27.039Z,101874.00
2019-03-29T18:56:58.344Z,101870.00
2019-03-29T18:59:34.630Z,101872.00
2019-03-29T19:02:06.094Z,101864.00
2019-03-29T19:04:37.325Z,101869.00
2019-03-29T19:07:08.571Z,101865.00
2019-03-29T19:09:40.041Z,101862.00
2019-03-29T19:12:11.499Z,101864.00
2019-03-29T19:14:42.724Z,101875.00
2019-03-29T19:17:13.955Z,101871.00
2019-03-29T19:19:58.577Z,101872.00
2019-03-29T19:22:29.850Z,101875.00
2019-03-29T19:25:01.116Z,101880.00
2019-03-29T19:27:38.300Z,101870.00
2019-03-29T19:30:09.799Z,101872.00
2019-03-29T19:32:41.293Z,101877.00
2019-03-29T19:35:12.601Z,101872.00
2019-03-29T19:37:44.147Z,101863.00
2019-03-29T19:40:16.102Z,101858.00
2019-03-29T19:42:47.305Z,101863.00
2019-03-29T19:45:24.433Z,101855.00
2019-03-29T19:47:55.916Z,101859.00
2019-03-29T19:50:27.228Z,101859.00
2019-03-29T19:52:59.755Z,101862.00
2019-03-29T19:55:31.410Z,101855.00
2019-03-29T19:58:03.042Z,101850.00
2019-03-29T20:00:47.586Z,101858.00
2019-03-29T20:03:19.463Z,101855.00
2019-03-29T20:05:50.922Z,101849.00
2019-03-29T20:08:32.457Z,101861.00
2019-03-29T20:11:03.680Z,101855.00
2019-03-29T20:13:34.920Z,101860.00
2019-03-29T20:16:08.802Z,101864.00
2019-03-29T20:18:40.670Z,101858.00
2019-03-29T20:21:12.145Z,101861.00
2019-03-29T20:23:44.467Z,101855.00
2019-03-29T20:26:15.896Z,101842.00
2019-03-29T20:28:47.088Z,101838.00
2019-03-29T20:31:18.369Z,101837.00
2019-03-29T20:33:49.837Z,101838.00
2019-03-29T20:36:23.046Z,101834.00
2019-03-29T20:38:54.586Z,101829.00
2019-03-29T20:41:25.775Z,101825.00
2019-03-29T20:44:00.139Z,101820.00
2019-03-29T20:46:34.236Z,101822.00
2019-03-29T20:49:06.526Z,101823.00
2019-03-29T20:51:38.114Z,101819.00
2019-03-29T20:54:16.298Z,101825.00
2019-03-29T20:56:48.455Z,101821.00
2019-03-29T20:59:24.700Z,101819.00
2019-03-29T21:01:56.262Z,101814.00
2019-03-29T21:08:33.252Z,101817.00
2019-03-29T21:11:05.126Z,101823.00
2019-03-29T21:13:36.980Z,101813.00
2019-03-29T21:16:11.101Z,101812.00
2019-03-29T21:18:42.271Z,101813.00
2019-03-29T21:21:13.455Z,101808.00
2019-03-29T21:23:47.120Z,101813.00
2019-03-29T21:26:17.873Z,101811.00
2019-03-29T21:28:49.041Z,101809.00
2019-03-29T21:31:20.209Z,101807.00
2019-03-29T21:33:51.356Z,101803.00
2019-03-29T21:36:22.502Z,101805.00
2019-03-29T21:38:54.230Z,101801.00
2019-03-29T21:41:25.419Z,101800.00
2019-03-29T21:43:57.933Z,101807.00
2019-03-29T21:46:29.085Z,101799.00
2019-03-29T21:49:00.264Z,101794.00
2019-03-29T21:51:31.492Z,101791.00
2019-03-29T21:54:02.944Z,101789.00
2019-03-29T21:56:34.573Z,101780.00
2019-03-29T21:59:05.741Z,101780.00
2019-03-29T22:01:37.687Z,101787.00
2019-03-29T22:04:08.902Z,101789.00
2019-03-29T22:06:40.081Z,101791.00
2019-03-29T22:09:11.400Z,101795.00
2019-03-29T22:11:42.830Z,101792.00
2019-03-29T22:14:14.052Z,101777.00
2019-03-29T22:16:45.223Z,101789.00
2019-03-29T22:19:16.672Z,101781.00
2019-03-29T22:21:47.882Z,101787.00
2019-03-29T22:24:19.331Z,101789.00
2019-03-29T22:26:50.496Z,101782.00
2019-03-29T22:29:21.688Z,101774.00
2019-03-29T22:31:53.235Z,101781.00
2019-03-29T22:34:24.497Z,101785.00
2019-03-29T22:37:02.204Z,101784.00
2019-03-29T22:39:33.772Z,101769.00
2019-03-29T22:42:05.305Z,101769.00
2019-03-29T22:44:36.779Z,101771.00
2019-03-29T22:47:08.254Z,101770.00
2019-03-29T22:49:39.470Z,101765.00
2019-03-29T22:52:10.653Z,101763.00
2019-03-29T22:54:42.126Z,101776.00
2019-03-29T22:57:13.604Z,101765.00
2019-03-29T22:59:45.090Z,101759.00
2019-03-29T23:02:17.338Z,101761.00
2019-03-29T23:04:48.614Z,101752.00
2019-03-29T23:07:19.788Z,101750.00
2019-03-29T23:09:50.990Z,101745.00
2019-03-29T23:12:22.452Z,101746.00
2019-03-29T23:14:53.636Z,101745.00
2019-03-29T23:17:24.802Z,101755.00
2019-03-29T23:19:56.254Z,101742.00
2019-03-29T23:22:27.718Z,101734.00
2019-03-29T23:24:58.896Z,101735.00
2019-03-29T23:27:30.723Z,101722.00
2019-03-29T23:30:01.885Z,101718.00
2019-03-29T23:32:33.355Z,101725.00
2019-03-29T23:35:04.932Z,101719.00
2019-03-29T23:37:36.372Z,101711.00
2019-03-29T23:40:08.633Z,101709.00
2019-03-29T23:42:40.101Z,101717.00
2019-03-29T23:45:11.616Z,101713.00
2019-03-29T23:47:43.076Z,101712.00
2019-03-29T23:50:14.667Z,101719.00
2019-03-29T23:52:46.140Z,101702.00
2019-03-29T23:55:17.607Z,101711.00
2019-03-29T23:57:48.832Z,101701.00
